Wishaw, United Kingdom

12:46 AM BST on September 01, 2015 (GMT +0100)
Wishaw ML2 Anderson | | Change Station
CLOSE
Current Station
Personal Weather Station
Location: Wishaw, Scotland
Elevation: 397 ft
Nearby Weather Stations

Elev 397 ft 55.78 °N, 3.93 °W | Updated 7 seconds ago

Mostly Cloudy
Mostly Cloudy
50.6 °F
Feels Like 50.6 °F
N
1.0
Wind Variable Wind from NNW
Gusts 1.0 mph

Today
High -- | Low -- °F
--% Chance of Precip.
Yesterday
High -- | Low -- °F
Precip. -- in
6:19 AM 8:10 PM
Waning Gibbous, 93% visible
Pressure 30.06 in
Visibility 6.2 miles
Clouds Few 2900 ft
Scattered Clouds 3400 ft
Mostly Cloudy 4300 ft
Dew Point 49 °F
Humidity 94%
Rainfall 0.00 in
Snow Depth Not available.
UV 0 out of 12
Pollen Not available.
Air Quality Not available.
Flu Activity Not available.
METAR EGPH 312320Z 29003KT 9999 FEW029 SCT034 BKN043 11/10 Q1018
Pressure 30.06 in
Visibility 6.2 miles
Clouds Few 2900 ft
Scattered Clouds 3400 ft
Mostly Cloudy 4300 ft
Dew Point 49 °F
Humidity 94%
Rainfall 0.00 in
Snow Depth Not available.
UV 0 out of 12
Pollen Not available.
Air Quality Not available.
Flu Activity Not available.
METAR EGPH 312320Z 29003KT 9999 FEW029 SCT034 BKN043 11/10 Q1018

10-Day Weather Forecast

×

Almanac

Astronomy

Sep. 01, 2015 Rise Set
Actual Time
Civil Twilight
Nautical Twilight
Astronomical Twilight
Moon
Length of Visible Light
Length of Day
Tomorrow will be .
, % of the Moon is Illuminated

Today's Extremes

Country Highs Country Lows

Community

WunderPhotos

Upload Photos

1,851,395 photos uploaded!

WunderBlogs® & News

Nearby

Air Quality

  Air Quality AQ Index Pollutant
Not available.

Snow Depth

Station Depth Elevation

Earthquake Activity

City Distance Mag. Time & Date
Minimum magnitude displayed is 2.5.

Coastal Water Temperatures

Place Temperature

Stations

Nearby Weather Stations

Station Location Temp. Windchill Dew Point Humidity Wind Precip. Elev Updated Type